sensor_id;sensor_type;location;lat;lon;timestamp;P1;durP1;ratioP1;P2;durP2;ratioP2
37051;SDS011;22964;52.272;13.356;2023-07-13T00:01:30;1.88;;;1.10;;
37051;SDS011;22964;52.272;13.356;2023-07-13T00:03:56;2.03;;;1.30;;
37051;SDS011;22964;52.272;13.356;2023-07-13T00:06:23;2.15;;;1.30;;
37051;SDS011;22964;52.272;13.356;2023-07-13T00:08:48;3.72;;;1.30;;
37051;SDS011;22964;52.272;13.356;2023-07-13T00:11:15;3.65;;;1.63;;
37051;SDS011;22964;52.272;13.356;2023-07-13T00:13:42;4.28;;;1.30;;
37051;SDS011;22964;52.272;13.356;2023-07-13T00:16:09;2.20;;;1.25;;
37051;SDS011;22964;52.272;13.356;2023-07-13T00:18:36;3.42;;;2.28;;
37051;SDS011;22964;52.272;13.356;2023-07-13T00:21:02;2.13;;;1.20;;
37051;SDS011;22964;52.272;13.356;2023-07-13T00:23:36;3.67;;;1.25;;
37051;SDS011;22964;52.272;13.356;2023-07-13T00:26:03;1.85;;;1.30;;
37051;SDS011;22964;52.272;13.356;2023-07-13T00:28:30;3.58;;;1.27;;
37051;SDS011;22964;52.272;13.356;2023-07-13T00:30:57;2.80;;;1.40;;
37051;SDS011;22964;52.272;13.356;2023-07-13T00:33:23;3.45;;;1.30;;
37051;SDS011;22964;52.272;13.356;2023-07-13T00:35:49;3.95;;;1.40;;
37051;SDS011;22964;52.272;13.356;2023-07-13T00:38:15;3.72;;;1.30;;
37051;SDS011;22964;52.272;13.356;2023-07-13T00:40:41;6.57;;;1.30;;
37051;SDS011;22964;52.272;13.356;2023-07-13T00:43:17;3.58;;;1.20;;
37051;SDS011;22964;52.272;13.356;2023-07-13T00:48:12;2.50;;;1.30;;
37051;SDS011;22964;52.272;13.356;2023-07-13T00:50:45;2.70;;;1.35;;
37051;SDS011;22964;52.272;13.356;2023-07-13T00:53:15;2.67;;;1.42;;
37051;SDS011;22964;52.272;13.356;2023-07-13T00:55:43;4.13;;;1.48;;
37051;SDS011;22964;52.272;13.356;2023-07-13T00:58:09;2.90;;;1.45;;
37051;SDS011;22964;52.272;13.356;2023-07-13T01:00:35;2.85;;;1.45;;
37051;SDS011;22964;52.272;13.356;2023-07-13T01:03:03;3.90;;;1.30;;
37051;SDS011;22964;52.272;13.356;2023-07-13T01:05:30;3.72;;;1.40;;
37051;SDS011;22964;52.272;13.356;2023-07-13T01:07:58;2.17;;;1.20;;
37051;SDS011;22964;52.272;13.356;2023-07-13T01:10:25;4.78;;;1.50;;
37051;SDS011;22964;52.272;13.356;2023-07-13T01:12:51;3.03;;;1.60;;
37051;SDS011;22964;52.272;13.356;2023-07-13T01:15:40;4.53;;;1.80;;
37051;SDS011;22964;52.272;13.356;2023-07-13T01:18:11;3.22;;;1.52;;
37051;SDS011;22964;52.272;13.356;2023-07-13T01:20:39;7.05;;;1.67;;
37051;SDS011;22964;52.272;13.356;2023-07-13T01:23:07;8.30;;;1.50;;
37051;SDS011;22964;52.272;13.356;2023-07-13T01:25:35;5.15;;;1.55;;
37051;SDS011;22964;52.272;13.356;2023-07-13T01:28:03;2.78;;;1.45;;
37051;SDS011;22964;52.272;13.356;2023-07-13T01:30:30;5.50;;;1.40;;
37051;SDS011;22964;52.272;13.356;2023-07-13T01:32:57;3.55;;;1.42;;
37051;SDS011;22964;52.272;13.356;2023-07-13T01:35:25;5.10;;;1.60;;
37051;SDS011;22964;52.272;13.356;2023-07-13T01:37:52;3.22;;;1.40;;
37051;SDS011;22964;52.272;13.356;2023-07-13T01:40:18;7.68;;;1.50;;
37051;SDS011;22964;52.272;13.356;2023-07-13T01:42:45;3.83;;;1.40;;
37051;SDS011;22964;52.272;13.356;2023-07-13T01:45:11;3.28;;;1.50;;
37051;SDS011;22964;52.272;13.356;2023-07-13T01:47:37;2.75;;;1.40;;
37051;SDS011;22964;52.272;13.356;2023-07-13T01:50:03;2.97;;;1.45;;
37051;SDS011;22964;52.272;13.356;2023-07-13T01:52:29;2.88;;;1.40;;
37051;SDS011;22964;52.272;13.356;2023-07-13T01:54:57;2.30;;;1.48;;
37051;SDS011;22964;52.272;13.356;2023-07-13T01:57:23;2.42;;;1.27;;
37051;SDS011;22964;52.272;13.356;2023-07-13T01:59:48;2.38;;;1.55;;
37051;SDS011;22964;52.272;13.356;2023-07-13T02:02:14;2.83;;;1.45;;
37051;SDS011;22964;52.272;13.356;2023-07-13T02:04:40;2.63;;;1.50;;
37051;SDS011;22964;52.272;13.356;2023-07-13T02:07:07;3.97;;;1.42;;
37051;SDS011;22964;52.272;13.356;2023-07-13T02:09:34;2.65;;;1.40;;
37051;SDS011;22964;52.272;13.356;2023-07-13T02:12:00;3.42;;;1.40;;
37051;SDS011;22964;52.272;13.356;2023-07-13T02:14:32;3.58;;;1.50;;
37051;SDS011;22964;52.272;13.356;2023-07-13T02:16:57;2.30;;;1.50;;
37051;SDS011;22964;52.272;13.356;2023-07-13T02:19:23;4.53;;;1.50;;
37051;SDS011;22964;52.272;13.356;2023-07-13T02:21:50;3.13;;;1.75;;
37051;SDS011;22964;52.272;13.356;2023-07-13T02:24:16;3.88;;;1.60;;
37051;SDS011;22964;52.272;13.356;2023-07-13T02:26:43;2.25;;;1.38;;
37051;SDS011;22964;52.272;13.356;2023-07-13T02:29:09;7.90;;;1.60;;
37051;SDS011;22964;52.272;13.356;2023-07-13T02:31:35;3.55;;;1.33;;
37051;SDS011;22964;52.272;13.356;2023-07-13T02:34:01;5.07;;;1.70;;
37051;SDS011;22964;52.272;13.356;2023-07-13T02:36:28;7.32;;;1.77;;
37051;SDS011;22964;52.272;13.356;2023-07-13T02:38:54;4.72;;;1.60;;
37051;SDS011;22964;52.272;13.356;2023-07-13T02:41:20;5.25;;;1.60;;
37051;SDS011;22964;52.272;13.356;2023-07-13T02:43:46;2.50;;;1.67;;
37051;SDS011;22964;52.272;13.356;2023-07-13T02:46:11;3.33;;;1.60;;
37051;SDS011;22964;52.272;13.356;2023-07-13T02:48:38;3.80;;;1.60;;
37051;SDS011;22964;52.272;13.356;2023-07-13T02:51:04;5.30;;;1.77;;
37051;SDS011;22964;52.272;13.356;2023-07-13T02:53:30;3.80;;;1.77;;
37051;SDS011;22964;52.272;13.356;2023-07-13T02:55:56;3.35;;;1.75;;
37051;SDS011;22964;52.272;13.356;2023-07-13T02:58:22;3.75;;;1.70;;
37051;SDS011;22964;52.272;13.356;2023-07-13T03:00:48;5.72;;;1.90;;
37051;SDS011;22964;52.272;13.356;2023-07-13T03:03:16;4.32;;;1.70;;
37051;SDS011;22964;52.272;13.356;2023-07-13T03:05:43;4.47;;;1.75;;
37051;SDS011;22964;52.272;13.356;2023-07-13T03:08:11;3.45;;;1.80;;
37051;SDS011;22964;52.272;13.356;2023-07-13T03:10:37;3.67;;;1.80;;
37051;SDS011;22964;52.272;13.356;2023-07-13T03:13:07;3.88;;;1.70;;
37051;SDS011;22964;52.272;13.356;2023-07-13T03:15:33;4.07;;;1.70;;
37051;SDS011;22964;52.272;13.356;2023-07-13T03:17:59;2.92;;;1.60;;
37051;SDS011;22964;52.272;13.356;2023-07-13T03:20:24;4.55;;;2.05;;
37051;SDS011;22964;52.272;13.356;2023-07-13T03:22:50;2.53;;;1.70;;
37051;SDS011;22964;52.272;13.356;2023-07-13T03:25:17;3.42;;;1.50;;
37051;SDS011;22964;52.272;13.356;2023-07-13T03:27:43;3.67;;;1.75;;
37051;SDS011;22964;52.272;13.356;2023-07-13T03:30:09;2.55;;;1.50;;
37051;SDS011;22964;52.272;13.356;2023-07-13T03:32:35;3.42;;;1.77;;
37051;SDS011;22964;52.272;13.356;2023-07-13T03:35:01;4.25;;;1.83;;
37051;SDS011;22964;52.272;13.356;2023-07-13T03:37:29;3.95;;;1.60;;
37051;SDS011;22964;52.272;13.356;2023-07-13T03:39:56;3.55;;;1.73;;
37051;SDS011;22964;52.272;13.356;2023-07-13T03:42:22;3.80;;;1.80;;
37051;SDS011;22964;52.272;13.356;2023-07-13T03:44:47;3.05;;;1.65;;
37051;SDS011;22964;52.272;13.356;2023-07-13T03:47:18;2.58;;;1.88;;
37051;SDS011;22964;52.272;13.356;2023-07-13T03:49:44;4.45;;;2.00;;
37051;SDS011;22964;52.272;13.356;2023-07-13T03:52:12;3.45;;;1.90;;
37051;SDS011;22964;52.272;13.356;2023-07-13T03:54:37;3.40;;;2.03;;
37051;SDS011;22964;52.272;13.356;2023-07-13T03:57:04;11.23;;;2.00;;
37051;SDS011;22964;52.272;13.356;2023-07-13T03:59:33;5.07;;;2.00;;
37051;SDS011;22964;52.272;13.356;2023-07-13T04:01:59;5.57;;;2.00;;
37051;SDS011;22964;52.272;13.356;2023-07-13T04:04:26;5.80;;;1.65;;
37051;SDS011;22964;52.272;13.356;2023-07-13T04:06:52;3.63;;;1.88;;
37051;SDS011;22964;52.272;13.356;2023-07-13T04:09:18;3.45;;;1.90;;
37051;SDS011;22964;52.272;13.356;2023-07-13T04:11:44;5.68;;;2.17;;
37051;SDS011;22964;52.272;13.356;2023-07-13T04:14:10;2.95;;;1.80;;
37051;SDS011;22964;52.272;13.356;2023-07-13T04:16:36;3.45;;;1.75;;
37051;SDS011;22964;52.272;13.356;2023-07-13T04:19:01;3.20;;;1.80;;
37051;SDS011;22964;52.272;13.356;2023-07-13T04:21:28;3.63;;;1.92;;
37051;SDS011;22964;52.272;13.356;2023-07-13T04:23:55;4.90;;;2.10;;
37051;SDS011;22964;52.272;13.356;2023-07-13T04:26:22;2.95;;;2.00;;
37051;SDS011;22964;52.272;13.356;2023-07-13T04:28:48;2.92;;;2.00;;
37051;SDS011;22964;52.272;13.356;2023-07-13T04:31:15;3.53;;;2.10;;
37051;SDS011;22964;52.272;13.356;2023-07-13T04:33:41;3.72;;;2.03;;
37051;SDS011;22964;52.272;13.356;2023-07-13T04:36:08;8.20;;;2.17;;
37051;SDS011;22964;52.272;13.356;2023-07-13T04:38:35;3.00;;;1.77;;
37051;SDS011;22964;52.272;13.356;2023-07-13T04:41:03;3.65;;;2.00;;
37051;SDS011;22964;52.272;13.356;2023-07-13T04:43:31;3.00;;;1.88;;
37051;SDS011;22964;52.272;13.356;2023-07-13T04:46:02;4.53;;;2.03;;
37051;SDS011;22964;52.272;13.356;2023-07-13T04:48:39;5.00;;;1.80;;
37051;SDS011;22964;52.272;13.356;2023-07-13T04:51:04;3.20;;;1.80;;
37051;SDS011;22964;52.272;13.356;2023-07-13T04:53:32;3.83;;;1.90;;
37051;SDS011;22964;52.272;13.356;2023-07-13T04:55:59;2.40;;;1.90;;
37051;SDS011;22964;52.272;13.356;2023-07-13T04:58:26;2.40;;;1.60;;
37051;SDS011;22964;52.272;13.356;2023-07-13T05:00:53;3.58;;;1.90;;
37051;SDS011;22964;52.272;13.356;2023-07-13T05:03:24;3.65;;;1.85;;
37051;SDS011;22964;52.272;13.356;2023-07-13T05:05:56;3.20;;;2.00;;
37051;SDS011;22964;52.272;13.356;2023-07-13T05:08:23;2.83;;;1.83;;
37051;SDS011;22964;52.272;13.356;2023-07-13T05:10:49;3.95;;;1.90;;
37051;SDS011;22964;52.272;13.356;2023-07-13T05:13:15;2.88;;;1.80;;
37051;SDS011;22964;52.272;13.356;2023-07-13T05:15:41;3.42;;;1.88;;
37051;SDS011;22964;52.272;13.356;2023-07-13T05:18:07;4.55;;;2.08;;
37051;SDS011;22964;52.272;13.356;2023-07-13T05:20:32;2.60;;;1.73;;
37051;SDS011;22964;52.272;13.356;2023-07-13T05:22:58;3.67;;;1.70;;
37051;SDS011;22964;52.272;13.356;2023-07-13T05:25:24;3.58;;;1.67;;
37051;SDS011;22964;52.272;13.356;2023-07-13T05:27:49;2.88;;;1.50;;
37051;SDS011;22964;52.272;13.356;2023-07-13T05:30:15;2.38;;;1.70;;
37051;SDS011;22964;52.272;13.356;2023-07-13T05:32:41;2.00;;;1.52;;
37051;SDS011;22964;52.272;13.356;2023-07-13T05:35:06;2.80;;;1.58;;
37051;SDS011;22964;52.272;13.356;2023-07-13T05:37:32;3.78;;;1.83;;
37051;SDS011;22964;52.272;13.356;2023-07-13T05:39:58;2.35;;;1.48;;
37051;SDS011;22964;52.272;13.356;2023-07-13T05:42:24;2.88;;;1.60;;
37051;SDS011;22964;52.272;13.356;2023-07-13T05:44:49;2.53;;;1.50;;
37051;SDS011;22964;52.272;13.356;2023-07-13T05:47:15;2.03;;;1.48;;
37051;SDS011;22964;52.272;13.356;2023-07-13T05:49:41;2.45;;;1.40;;
37051;SDS011;22964;52.272;13.356;2023-07-13T05:52:06;3.08;;;1.50;;
37051;SDS011;22964;52.272;13.356;2023-07-13T05:54:32;1.90;;;1.42;;
37051;SDS011;22964;52.272;13.356;2023-07-13T05:56:58;4.03;;;1.40;;
37051;SDS011;22964;52.272;13.356;2023-07-13T05:59:24;5.10;;;1.50;;
37051;SDS011;22964;52.272;13.356;2023-07-13T06:01:51;3.17;;;1.42;;
37051;SDS011;22964;52.272;13.356;2023-07-13T06:04:17;3.53;;;1.30;;
37051;SDS011;22964;52.272;13.356;2023-07-13T06:06:44;4.28;;;1.27;;
37051;SDS011;22964;52.272;13.356;2023-07-13T06:09:10;3.00;;;1.70;;
37051;SDS011;22964;52.272;13.356;2023-07-13T06:11:36;8.07;;;1.50;;
37051;SDS011;22964;52.272;13.356;2023-07-13T06:14:01;3.17;;;1.30;;
37051;SDS011;22964;52.272;13.356;2023-07-13T06:16:29;2.78;;;1.10;;
37051;SDS011;22964;52.272;13.356;2023-07-13T06:18:55;2.85;;;1.40;;
37051;SDS011;22964;52.272;13.356;2023-07-13T06:21:21;2.47;;;1.25;;
37051;SDS011;22964;52.272;13.356;2023-07-13T06:23:48;2.63;;;1.40;;
37051;SDS011;22964;52.272;13.356;2023-07-13T06:26:15;3.13;;;1.30;;
37051;SDS011;22964;52.272;13.356;2023-07-13T06:28:42;1.92;;;1.20;;
37051;SDS011;22964;52.272;13.356;2023-07-13T06:31:09;3.53;;;1.30;;
37051;SDS011;22964;52.272;13.356;2023-07-13T06:33:36;1.90;;;1.10;;
37051;SDS011;22964;52.272;13.356;2023-07-13T06:36:03;1.95;;;1.20;;
37051;SDS011;22964;52.272;13.356;2023-07-13T06:38:30;2.60;;;1.15;;
37051;SDS011;22964;52.272;13.356;2023-07-13T06:40:56;2.03;;;1.20;;
37051;SDS011;22964;52.272;13.356;2023-07-13T06:43:22;3.05;;;1.58;;
37051;SDS011;22964;52.272;13.356;2023-07-13T06:45:50;3.78;;;1.40;;
37051;SDS011;22964;52.272;13.356;2023-07-13T06:48:16;3.33;;;1.35;;
37051;SDS011;22964;52.272;13.356;2023-07-13T06:50:43;2.03;;;1.10;;
37051;SDS011;22964;52.272;13.356;2023-07-13T06:53:11;2.13;;;1.33;;
37051;SDS011;22964;52.272;13.356;2023-07-13T06:55:37;3.28;;;1.35;;
37051;SDS011;22964;52.272;13.356;2023-07-13T06:58:03;3.92;;;1.20;;
37051;SDS011;22964;52.272;13.356;2023-07-13T07:00:29;5.22;;;1.50;;
37051;SDS011;22964;52.272;13.356;2023-07-13T07:02:55;3.38;;;1.10;;
37051;SDS011;22964;52.272;13.356;2023-07-13T07:05:23;2.85;;;1.40;;
37051;SDS011;22964;52.272;13.356;2023-07-13T07:07:49;2.28;;;1.17;;
37051;SDS011;22964;52.272;13.356;2023-07-13T07:10:15;1.90;;;1.30;;
37051;SDS011;22964;52.272;13.356;2023-07-13T07:12:41;2.30;;;1.30;;
37051;SDS011;22964;52.272;13.356;2023-07-13T07:15:07;2.08;;;1.20;;
37051;SDS011;22964;52.272;13.356;2023-07-13T07:17:33;2.10;;;1.08;;
37051;SDS011;22964;52.272;13.356;2023-07-13T07:19:59;2.20;;;1.10;;
37051;SDS011;22964;52.272;13.356;2023-07-13T07:22:25;1.83;;;1.00;;
37051;SDS011;22964;52.272;13.356;2023-07-13T07:24:53;2.25;;;1.20;;
37051;SDS011;22964;52.272;13.356;2023-07-13T07:27:19;2.08;;;1.17;;
37051;SDS011;22964;52.272;13.356;2023-07-13T07:29:45;5.65;;;1.25;;
37051;SDS011;22964;52.272;13.356;2023-07-13T07:32:10;2.05;;;1.00;;
37051;SDS011;22964;52.272;13.356;2023-07-13T07:34:36;2.80;;;1.20;;
37051;SDS011;22964;52.272;13.356;2023-07-13T07:37:02;3.03;;;1.00;;
37051;SDS011;22964;52.272;13.356;2023-07-13T07:39:28;2.80;;;1.00;;
37051;SDS011;22964;52.272;13.356;2023-07-13T07:41:55;1.65;;;1.00;;
37051;SDS011;22964;52.272;13.356;2023-07-13T07:44:21;2.92;;;1.00;;
37051;SDS011;22964;52.272;13.356;2023-07-13T07:46:47;3.65;;;1.55;;
37051;SDS011;22964;52.272;13.356;2023-07-13T07:49:13;2.28;;;1.00;;
37051;SDS011;22964;52.272;13.356;2023-07-13T07:51:39;1.95;;;1.00;;
37051;SDS011;22964;52.272;13.356;2023-07-13T07:54:05;2.42;;;0.93;;
37051;SDS011;22964;52.272;13.356;2023-07-13T07:56:31;5.40;;;1.20;;
37051;SDS011;22964;52.272;13.356;2023-07-13T07:58:58;2.42;;;1.10;;
37051;SDS011;22964;52.272;13.356;2023-07-13T08:01:24;1.90;;;1.00;;
37051;SDS011;22964;52.272;13.356;2023-07-13T08:03:49;2.47;;;1.05;;
37051;SDS011;22964;52.272;13.356;2023-07-13T08:06:15;3.95;;;0.98;;
37051;SDS011;22964;52.272;13.356;2023-07-13T08:08:41;3.03;;;1.10;;
37051;SDS011;22964;52.272;13.356;2023-07-13T08:11:09;5.60;;;1.20;;
37051;SDS011;22964;52.272;13.356;2023-07-13T08:13:36;1.80;;;1.00;;
37051;SDS011;22964;52.272;13.356;2023-07-13T08:16:03;3.35;;;1.08;;
37051;SDS011;22964;52.272;13.356;2023-07-13T08:18:30;2.63;;;1.10;;
37051;SDS011;22964;52.272;13.356;2023-07-13T08:20:56;1.48;;;0.88;;
37051;SDS011;22964;52.272;13.356;2023-07-13T08:23:23;2.67;;;1.10;;
37051;SDS011;22964;52.272;13.356;2023-07-13T08:25:53;2.55;;;1.38;;
37051;SDS011;22964;52.272;13.356;2023-07-13T08:28:20;2.25;;;1.08;;
37051;SDS011;22964;52.272;13.356;2023-07-13T08:30:46;1.98;;;1.00;;
37051;SDS011;22964;52.272;13.356;2023-07-13T08:33:17;3.88;;;1.20;;
37051;SDS011;22964;52.272;13.356;2023-07-13T08:35:47;1.95;;;1.10;;
37051;SDS011;22964;52.272;13.356;2023-07-13T08:38:13;2.53;;;1.15;;
37051;SDS011;22964;52.272;13.356;2023-07-13T08:40:40;1.90;;;1.10;;
37051;SDS011;22964;52.272;13.356;2023-07-13T08:43:09;1.60;;;0.88;;
37051;SDS011;22964;52.272;13.356;2023-07-13T08:45:47;2.60;;;1.10;;
37051;SDS011;22964;52.272;13.356;2023-07-13T08:48:27;1.88;;;1.10;;
37051;SDS011;22964;52.272;13.356;2023-07-13T08:53:54;2.38;;;1.00;;
37051;SDS011;22964;52.272;13.356;2023-07-13T08:56:24;2.42;;;1.20;;
37051;SDS011;22964;52.272;13.356;2023-07-13T08:58:54;1.80;;;0.90;;
37051;SDS011;22964;52.272;13.356;2023-07-13T09:04:25;2.17;;;1.10;;
37051;SDS011;22964;52.272;13.356;2023-07-13T09:07:10;2.67;;;1.20;;
37051;SDS011;22964;52.272;13.356;2023-07-13T09:09:49;2.88;;;1.10;;
37051;SDS011;22964;52.272;13.356;2023-07-13T09:15:03;1.85;;;1.05;;
37051;SDS011;22964;52.272;13.356;2023-07-13T09:17:40;3.35;;;1.30;;
37051;SDS011;22964;52.272;13.356;2023-07-13T09:20:18;2.50;;;1.00;;
37051;SDS011;22964;52.272;13.356;2023-07-13T09:22:45;3.92;;;1.00;;
37051;SDS011;22964;52.272;13.356;2023-07-13T09:25:20;2.30;;;1.10;;
37051;SDS011;22964;52.272;13.356;2023-07-13T09:27:52;1.77;;;1.02;;
37051;SDS011;22964;52.272;13.356;2023-07-13T09:30:24;4.57;;;1.30;;
37051;SDS011;22964;52.272;13.356;2023-07-13T09:33:14;2.35;;;1.10;;
37051;SDS011;22964;52.272;13.356;2023-07-13T09:35:40;2.22;;;1.13;;
37051;SDS011;22964;52.272;13.356;2023-07-13T09:38:14;2.03;;;1.10;;
37051;SDS011;22964;52.272;13.356;2023-07-13T09:44:27;3.33;;;1.15;;
37051;SDS011;22964;52.272;13.356;2023-07-13T09:46:52;2.72;;;1.10;;
37051;SDS011;22964;52.272;13.356;2023-07-13T09:49:23;2.22;;;1.15;;
37051;SDS011;22964;52.272;13.356;2023-07-13T09:51:50;2.47;;;1.20;;
37051;SDS011;22964;52.272;13.356;2023-07-13T09:54:25;3.33;;;1.30;;
37051;SDS011;22964;52.272;13.356;2023-07-13T09:56:55;1.63;;;1.00;;
37051;SDS011;22964;52.272;13.356;2023-07-13T09:59:22;2.65;;;1.10;;
37051;SDS011;22964;52.272;13.356;2023-07-13T10:01:53;2.55;;;1.10;;
37051;SDS011;22964;52.272;13.356;2023-07-13T10:04:22;3.85;;;1.48;;
37051;SDS011;22964;52.272;13.356;2023-07-13T10:07:04;2.58;;;1.30;;
37051;SDS011;22964;52.272;13.356;2023-07-13T10:09:32;2.25;;;1.20;;
37051;SDS011;22964;52.272;13.356;2023-07-13T10:11:57;2.38;;;1.20;;
37051;SDS011;22964;52.272;13.356;2023-07-13T10:14:23;3.33;;;1.40;;
37051;SDS011;22964;52.272;13.356;2023-07-13T10:16:52;3.28;;;1.25;;
37051;SDS011;22964;52.272;13.356;2023-07-13T10:19:29;3.80;;;1.33;;
37051;SDS011;22964;52.272;13.356;2023-07-13T10:22:02;2.53;;;1.20;;
37051;SDS011;22964;52.272;13.356;2023-07-13T10:24:38;2.50;;;1.50;;
37051;SDS011;22964;52.272;13.356;2023-07-13T10:27:20;2.67;;;1.30;;
37051;SDS011;22964;52.272;13.356;2023-07-13T10:32:50;7.85;;;1.42;;
37051;SDS011;22964;52.272;13.356;2023-07-13T10:35:18;5.25;;;1.40;;
37051;SDS011;22964;52.272;13.356;2023-07-13T10:40:32;3.00;;;1.50;;
37051;SDS011;22964;52.272;13.356;2023-07-13T10:43:04;3.22;;;1.30;;
37051;SDS011;22964;52.272;13.356;2023-07-13T10:45:36;3.45;;;1.38;;
37051;SDS011;22964;52.272;13.356;2023-07-13T10:48:02;2.38;;;1.30;;
37051;SDS011;22964;52.272;13.356;2023-07-13T10:50:29;5.57;;;1.50;;
37051;SDS011;22964;52.272;13.356;2023-07-13T10:53:01;3.05;;;1.30;;
37051;SDS011;22964;52.272;13.356;2023-07-13T10:58:23;2.28;;;1.30;;
37051;SDS011;22964;52.272;13.356;2023-07-13T11:03:32;2.15;;;1.30;;
37051;SDS011;22964;52.272;13.356;2023-07-13T11:06:08;2.45;;;1.40;;
37051;SDS011;22964;52.272;13.356;2023-07-13T11:08:38;2.38;;;1.20;;
37051;SDS011;22964;52.272;13.356;2023-07-13T11:18:52;2.67;;;1.50;;
37051;SDS011;22964;52.272;13.356;2023-07-13T11:21:27;4.25;;;1.25;;
37051;SDS011;22964;52.272;13.356;2023-07-13T11:24:13;2.53;;;1.27;;
37051;SDS011;22964;52.272;13.356;2023-07-13T11:26:41;2.30;;;1.33;;
37051;SDS011;22964;52.272;13.356;2023-07-13T11:31:42;2.72;;;1.40;;
37051;SDS011;22964;52.272;13.356;2023-07-13T11:34:16;2.53;;;1.30;;
37051;SDS011;22964;52.272;13.356;2023-07-13T11:36:49;2.03;;;1.20;;
37051;SDS011;22964;52.272;13.356;2023-07-13T11:41:48;2.63;;;1.17;;
37051;SDS011;22964;52.272;13.356;2023-07-13T11:44:21;3.20;;;1.40;;
37051;SDS011;22964;52.272;13.356;2023-07-13T11:46:49;2.95;;;1.30;;
37051;SDS011;22964;52.272;13.356;2023-07-13T11:49:26;3.45;;;1.60;;
37051;SDS011;22964;52.272;13.356;2023-07-13T11:51:57;2.20;;;1.30;;
37051;SDS011;22964;52.272;13.356;2023-07-13T11:54:26;2.60;;;1.17;;
37051;SDS011;22964;52.272;13.356;2023-07-13T11:57:03;3.08;;;1.27;;
37051;SDS011;22964;52.272;13.356;2023-07-13T11:59:48;3.50;;;1.38;;
37051;SDS011;22964;52.272;13.356;2023-07-13T12:02:18;1.98;;;1.10;;
37051;SDS011;22964;52.272;13.356;2023-07-13T12:04:52;3.08;;;1.15;;
37051;SDS011;22964;52.272;13.356;2023-07-13T12:07:18;1.85;;;1.10;;
37051;SDS011;22964;52.272;13.356;2023-07-13T12:09:44;2.33;;;1.17;;
37051;SDS011;22964;52.272;13.356;2023-07-13T12:12:14;2.65;;;1.00;;
37051;SDS011;22964;52.272;13.356;2023-07-13T12:14:42;2.58;;;1.10;;
37051;SDS011;22964;52.272;13.356;2023-07-13T12:17:09;3.38;;;1.35;;
37051;SDS011;22964;52.272;13.356;2023-07-13T12:19:47;2.70;;;1.10;;
37051;SDS011;22964;52.272;13.356;2023-07-13T12:22:14;4.75;;;1.50;;
37051;SDS011;22964;52.272;13.356;2023-07-13T12:24:42;3.13;;;1.10;;
37051;SDS011;22964;52.272;13.356;2023-07-13T12:29:50;2.80;;;1.10;;
37051;SDS011;22964;52.272;13.356;2023-07-13T12:32:19;2.08;;;1.17;;
37051;SDS011;22964;52.272;13.356;2023-07-13T12:34:51;2.25;;;1.10;;
37051;SDS011;22964;52.272;13.356;2023-07-13T12:37:18;1.73;;;0.82;;
37051;SDS011;22964;52.272;13.356;2023-07-13T12:39:45;2.67;;;1.00;;
37051;SDS011;22964;52.272;13.356;2023-07-13T12:44:42;1.98;;;1.10;;
37051;SDS011;22964;52.272;13.356;2023-07-13T12:47:09;1.70;;;0.90;;
37051;SDS011;22964;52.272;13.356;2023-07-13T12:49:54;4.03;;;1.10;;
37051;SDS011;22964;52.272;13.356;2023-07-13T12:52:31;2.10;;;0.90;;
37051;SDS011;22964;52.272;13.356;2023-07-13T12:55:02;2.65;;;1.00;;
37051;SDS011;22964;52.272;13.356;2023-07-13T12:57:31;1.90;;;1.00;;
37051;SDS011;22964;52.272;13.356;2023-07-13T12:59:56;2.88;;;0.90;;
37051;SDS011;22964;52.272;13.356;2023-07-13T13:04:51;1.73;;;1.00;;
37051;SDS011;22964;52.272;13.356;2023-07-13T13:07:17;3.05;;;1.10;;
37051;SDS011;22964;52.272;13.356;2023-07-13T13:09:45;2.35;;;1.25;;
37051;SDS011;22964;52.272;13.356;2023-07-13T13:12:12;1.77;;;0.90;;
37051;SDS011;22964;52.272;13.356;2023-07-13T13:14:38;3.22;;;1.10;;
37051;SDS011;22964;52.272;13.356;2023-07-13T13:17:07;1.70;;;1.00;;
37051;SDS011;22964;52.272;13.356;2023-07-13T13:19:44;2.67;;;1.10;;
37051;SDS011;22964;52.272;13.356;2023-07-13T13:22:11;1.80;;;0.90;;
37051;SDS011;22964;52.272;13.356;2023-07-13T13:24:36;3.13;;;1.20;;
37051;SDS011;22964;52.272;13.356;2023-07-13T13:27:02;4.13;;;0.88;;
37051;SDS011;22964;52.272;13.356;2023-07-13T13:29:28;1.73;;;0.90;;
37051;SDS011;22964;52.272;13.356;2023-07-13T13:31:57;3.35;;;1.15;;
37051;SDS011;22964;52.272;13.356;2023-07-13T13:34:24;4.00;;;0.95;;
37051;SDS011;22964;52.272;13.356;2023-07-13T13:36:50;2.60;;;0.90;;
37051;SDS011;22964;52.272;13.356;2023-07-13T13:39:24;4.88;;;1.13;;
37051;SDS011;22964;52.272;13.356;2023-07-13T13:41:53;2.15;;;0.90;;
37051;SDS011;22964;52.272;13.356;2023-07-13T13:44:20;3.78;;;1.23;;
37051;SDS011;22964;52.272;13.356;2023-07-13T13:46:47;2.92;;;1.00;;
37051;SDS011;22964;52.272;13.356;2023-07-13T13:49:17;1.95;;;0.90;;
37051;SDS011;22964;52.272;13.356;2023-07-13T13:51:49;4.30;;;1.08;;
37051;SDS011;22964;52.272;13.356;2023-07-13T13:54:16;2.05;;;0.90;;
37051;SDS011;22964;52.272;13.356;2023-07-13T13:56:43;1.83;;;0.90;;
37051;SDS011;22964;52.272;13.356;2023-07-13T13:59:11;0.98;;;0.70;;
37051;SDS011;22964;52.272;13.356;2023-07-13T14:01:37;1.35;;;0.90;;
37051;SDS011;22964;52.272;13.356;2023-07-13T14:04:03;3.33;;;1.10;;
37051;SDS011;22964;52.272;13.356;2023-07-13T14:06:30;1.92;;;0.95;;
37051;SDS011;22964;52.272;13.356;2023-07-13T14:08:57;2.25;;;1.00;;
37051;SDS011;22964;52.272;13.356;2023-07-13T14:11:23;3.00;;;1.00;;
37051;SDS011;22964;52.272;13.356;2023-07-13T14:13:49;1.63;;;0.90;;
37051;SDS011;22964;52.272;13.356;2023-07-13T14:16:19;1.67;;;0.80;;
37051;SDS011;22964;52.272;13.356;2023-07-13T14:18:46;2.45;;;0.90;;
37051;SDS011;22964;52.272;13.356;2023-07-13T14:21:17;1.45;;;0.88;;
37051;SDS011;22964;52.272;13.356;2023-07-13T14:23:45;4.45;;;1.00;;
37051;SDS011;22964;52.272;13.356;2023-07-13T14:26:13;1.65;;;0.98;;
37051;SDS011;22964;52.272;13.356;2023-07-13T14:28:47;2.70;;;0.82;;
37051;SDS011;22964;52.272;13.356;2023-07-13T14:31:16;3.13;;;0.90;;
37051;SDS011;22964;52.272;13.356;2023-07-13T14:33:42;1.77;;;1.00;;
37051;SDS011;22964;52.272;13.356;2023-07-13T14:36:23;3.22;;;1.08;;
37051;SDS011;22964;52.272;13.356;2023-07-13T14:39:13;1.92;;;0.80;;
37051;SDS011;22964;52.272;13.356;2023-07-13T14:41:44;2.17;;;0.97;;
37051;SDS011;22964;52.272;13.356;2023-07-13T14:44:12;2.00;;;0.90;;
37051;SDS011;22964;52.272;13.356;2023-07-13T14:46:42;1.85;;;0.80;;
37051;SDS011;22964;52.272;13.356;2023-07-13T14:49:13;1.73;;;0.80;;
37051;SDS011;22964;52.272;13.356;2023-07-13T14:51:47;1.63;;;0.73;;
37051;SDS011;22964;52.272;13.356;2023-07-13T14:54:12;3.88;;;0.88;;
37051;SDS011;22964;52.272;13.356;2023-07-13T14:56:38;1.85;;;0.80;;
37051;SDS011;22964;52.272;13.356;2023-07-13T14:59:04;1.60;;;0.80;;
37051;SDS011;22964;52.272;13.356;2023-07-13T15:01:30;1.90;;;0.98;;
37051;SDS011;22964;52.272;13.356;2023-07-13T15:03:56;1.33;;;0.80;;
37051;SDS011;22964;52.272;13.356;2023-07-13T15:06:23;1.75;;;0.80;;
37051;SDS011;22964;52.272;13.356;2023-07-13T15:08:49;1.13;;;0.73;;
37051;SDS011;22964;52.272;13.356;2023-07-13T15:11:15;1.58;;;0.60;;
37051;SDS011;22964;52.272;13.356;2023-07-13T15:13:41;1.75;;;0.73;;
37051;SDS011;22964;52.272;13.356;2023-07-13T15:16:16;1.33;;;0.80;;
37051;SDS011;22964;52.272;13.356;2023-07-13T15:18:48;1.67;;;0.73;;
37051;SDS011;22964;52.272;13.356;2023-07-13T15:21:17;1.23;;;0.80;;
37051;SDS011;22964;52.272;13.356;2023-07-13T15:23:46;1.33;;;0.80;;
37051;SDS011;22964;52.272;13.356;2023-07-13T15:26:12;2.20;;;0.80;;